sensor_id;sensor_type;location;lat;lon;timestamp;pressure;altitude;pressure_sealevel;temperature;humidity
22104;BME280;11218;48.886;9.426;2023-07-13T00:01:13;97898.59;;;22.16;53.42
22104;BME280;11218;48.886;9.426;2023-07-13T00:03:42;97903.09;;;22.20;53.18
22104;BME280;11218;48.886;9.426;2023-07-13T00:06:10;97899.22;;;22.21;53.16
22104;BME280;11218;48.886;9.426;2023-07-13T00:08:38;97898.91;;;22.23;53.05
22104;BME280;11218;48.886;9.426;2023-07-13T00:11:07;97904.19;;;22.28;52.85
22104;BME280;11218;48.886;9.426;2023-07-13T00:13:37;97912.63;;;22.23;53.24
22104;BME280;11218;48.886;9.426;2023-07-13T00:16:07;97910.53;;;22.20;53.34
22104;BME280;11218;48.886;9.426;2023-07-13T00:18:37;97900.69;;;22.19;52.28
22104;BME280;11218;48.886;9.426;2023-07-13T00:21:05;97898.78;;;22.11;52.19
22104;BME280;11218;48.886;9.426;2023-07-13T00:23:34;97903.78;;;22.09;51.91
22104;BME280;11218;48.886;9.426;2023-07-13T00:26:03;97905.41;;;21.92;52.22
22104;BME280;11218;48.886;9.426;2023-07-13T00:28:32;97907.06;;;21.76;52.71
22104;BME280;11218;48.886;9.426;2023-07-13T00:31:00;97903.69;;;21.71;52.85
22104;BME280;11218;48.886;9.426;2023-07-13T00:33:30;97901.13;;;21.65;53.01
22104;BME280;11218;48.886;9.426;2023-07-13T00:35:59;97909.38;;;21.57;53.56
22104;BME280;11218;48.886;9.426;2023-07-13T00:38:27;97908.59;;;21.48;53.89
22104;BME280;11218;48.886;9.426;2023-07-13T00:40:55;97904.56;;;21.45;54.34
22104;BME280;11218;48.886;9.426;2023-07-13T00:43:27;97905.06;;;21.39;54.60
22104;BME280;11218;48.886;9.426;2023-07-13T00:46:16;97913.44;;;21.34;54.04
22104;BME280;11218;48.886;9.426;2023-07-13T00:48:47;97919.84;;;21.20;54.59
22104;BME280;11218;48.886;9.426;2023-07-13T00:51:19;97912.75;;;21.19;54.82
22104;BME280;11218;48.886;9.426;2023-07-13T00:53:49;97915.50;;;21.19;54.57
22104;BME280;11218;48.886;9.426;2023-07-13T00:56:26;97921.63;;;21.08;55.20
22104;BME280;11218;48.886;9.426;2023-07-13T00:58:55;97917.91;;;21.04;55.84
22104;BME280;11218;48.886;9.426;2023-07-13T01:01:24;97923.22;;;21.09;56.08
22104;BME280;11218;48.886;9.426;2023-07-13T01:03:53;97931.28;;;21.14;55.83
22104;BME280;11218;48.886;9.426;2023-07-13T01:06:24;97929.34;;;21.14;56.12
22104;BME280;11218;48.886;9.426;2023-07-13T01:08:52;97930.16;;;21.15;55.98
22104;BME280;11218;48.886;9.426;2023-07-13T01:11:21;97931.59;;;21.12;55.63
22104;BME280;11218;48.886;9.426;2023-07-13T01:13:49;97926.59;;;21.14;55.65
22104;BME280;11218;48.886;9.426;2023-07-13T01:16:22;97921.13;;;21.14;56.10
22104;BME280;11218;48.886;9.426;2023-07-13T01:18:54;97922.09;;;21.10;55.92
22104;BME280;11218;48.886;9.426;2023-07-13T01:21:27;97930.78;;;21.12;56.20
22104;BME280;11218;48.886;9.426;2023-07-13T01:23:55;97926.13;;;21.12;56.31
22104;BME280;11218;48.886;9.426;2023-07-13T01:26:24;97932.09;;;21.14;56.20
22104;BME280;11218;48.886;9.426;2023-07-13T01:28:51;97923.22;;;21.17;55.87
22104;BME280;11218;48.886;9.426;2023-07-13T01:31:20;97919.69;;;21.17;55.89
22104;BME280;11218;48.886;9.426;2023-07-13T01:33:48;97934.00;;;21.14;56.24
22104;BME280;11218;48.886;9.426;2023-07-13T01:36:16;97927.56;;;21.10;56.12
22104;BME280;11218;48.886;9.426;2023-07-13T01:43:04;97926.28;;;21.07;55.92
22104;BME280;11218;48.886;9.426;2023-07-13T01:45:32;97923.69;;;21.02;56.22
22104;BME280;11218;48.886;9.426;2023-07-13T01:48:01;97929.81;;;20.99;56.44
22104;BME280;11218;48.886;9.426;2023-07-13T01:50:29;97921.59;;;20.99;56.21
22104;BME280;11218;48.886;9.426;2023-07-13T01:52:57;97928.03;;;20.94;56.30
22104;BME280;11218;48.886;9.426;2023-07-13T01:55:25;97933.66;;;20.89;56.15
22104;BME280;11218;48.886;9.426;2023-07-13T01:57:53;97934.13;;;20.83;56.26
22104;BME280;11218;48.886;9.426;2023-07-13T02:00:23;97942.53;;;20.78;56.49
22104;BME280;11218;48.886;9.426;2023-07-13T02:02:52;97945.91;;;20.75;56.67
22104;BME280;11218;48.886;9.426;2023-07-13T02:05:20;97938.81;;;20.74;56.54
22104;BME280;11218;48.886;9.426;2023-07-13T02:07:48;97937.84;;;20.70;56.65
22104;BME280;11218;48.886;9.426;2023-07-13T02:10:17;97944.28;;;20.74;56.72
22104;BME280;11218;48.886;9.426;2023-07-13T02:12:45;97949.25;;;20.63;57.26
22104;BME280;11218;48.886;9.426;2023-07-13T02:15:13;97946.16;;;20.56;57.33
22104;BME280;11218;48.886;9.426;2023-07-13T02:17:43;97946.31;;;20.51;57.14
22104;BME280;11218;48.886;9.426;2023-07-13T02:20:11;97950.22;;;20.36;57.53
22104;BME280;11218;48.886;9.426;2023-07-13T02:22:39;97943.59;;;20.28;57.15
22104;BME280;11218;48.886;9.426;2023-07-13T02:25:07;97941.94;;;20.19;57.63
22104;BME280;11218;48.886;9.426;2023-07-13T02:27:36;97945.94;;;20.04;57.96
22104;BME280;11218;48.886;9.426;2023-07-13T02:30:04;97947.66;;;20.00;58.22
22104;BME280;11218;48.886;9.426;2023-07-13T02:32:33;97947.19;;;19.98;58.36
22104;BME280;11218;48.886;9.426;2023-07-13T02:35:04;97952.41;;;19.86;58.52
22104;BME280;11218;48.886;9.426;2023-07-13T02:37:32;97955.91;;;19.78;59.04
22104;BME280;11218;48.886;9.426;2023-07-13T02:40:00;97953.97;;;19.78;59.09
22104;BME280;11218;48.886;9.426;2023-07-13T02:42:30;97952.34;;;19.77;59.58
22104;BME280;11218;48.886;9.426;2023-07-13T02:44:58;97957.31;;;19.75;59.58
22104;BME280;11218;48.886;9.426;2023-07-13T02:47:27;97961.16;;;19.74;59.10
22104;BME280;11218;48.886;9.426;2023-07-13T02:49:55;97962.72;;;19.66;59.09
22104;BME280;11218;48.886;9.426;2023-07-13T02:52:24;97958.69;;;19.64;59.04
22104;BME280;11218;48.886;9.426;2023-07-13T02:54:52;97964.91;;;19.56;59.29
22104;BME280;11218;48.886;9.426;2023-07-13T02:57:20;97966.91;;;19.50;59.58
22104;BME280;11218;48.886;9.426;2023-07-13T02:59:49;97964.41;;;19.40;59.61
22104;BME280;11218;48.886;9.426;2023-07-13T03:02:17;97963.09;;;19.37;59.70
22104;BME280;11218;48.886;9.426;2023-07-13T03:04:46;97972.88;;;19.30;60.49
22104;BME280;11218;48.886;9.426;2023-07-13T03:07:14;97979.94;;;19.31;59.83
22104;BME280;11218;48.886;9.426;2023-07-13T03:09:43;97979.59;;;19.32;59.92
22104;BME280;11218;48.886;9.426;2023-07-13T03:12:12;97969.38;;;19.38;59.92
22104;BME280;11218;48.886;9.426;2023-07-13T03:14:40;97970.88;;;19.44;59.88
22104;BME280;11218;48.886;9.426;2023-07-13T03:17:08;97972.59;;;19.54;60.20
22104;BME280;11218;48.886;9.426;2023-07-13T03:19:36;97971.16;;;19.56;60.08
22104;BME280;11218;48.886;9.426;2023-07-13T03:22:04;97965.38;;;19.58;59.28
22104;BME280;11218;48.886;9.426;2023-07-13T03:24:33;97970.53;;;19.59;59.26
22104;BME280;11218;48.886;9.426;2023-07-13T03:27:06;97981.97;;;19.61;58.99
22104;BME280;11218;48.886;9.426;2023-07-13T03:29:35;97980.53;;;19.64;58.79
22104;BME280;11218;48.886;9.426;2023-07-13T03:32:03;97973.66;;;19.66;58.95
22104;BME280;11218;48.886;9.426;2023-07-13T03:34:32;97982.66;;;19.67;58.94
22104;BME280;11218;48.886;9.426;2023-07-13T03:37:00;97984.75;;;19.70;58.82
22104;BME280;11218;48.886;9.426;2023-07-13T03:39:28;97992.53;;;19.77;59.13
22104;BME280;11218;48.886;9.426;2023-07-13T03:41:56;97990.47;;;19.82;59.01
22104;BME280;11218;48.886;9.426;2023-07-13T03:44:26;97996.31;;;19.89;58.83
22104;BME280;11218;48.886;9.426;2023-07-13T03:46:54;97996.50;;;19.93;58.36
22104;BME280;11218;48.886;9.426;2023-07-13T03:49:24;98000.03;;;19.93;58.44
22104;BME280;11218;48.886;9.426;2023-07-13T03:51:52;97999.72;;;19.95;58.57
22104;BME280;11218;48.886;9.426;2023-07-13T03:54:21;98006.50;;;19.97;58.96
22104;BME280;11218;48.886;9.426;2023-07-13T03:56:48;98001.53;;;19.99;58.46
22104;BME280;11218;48.886;9.426;2023-07-13T03:59:17;98006.81;;;19.96;58.51
22104;BME280;11218;48.886;9.426;2023-07-13T04:01:46;98020.47;;;19.96;58.39
22104;BME280;11218;48.886;9.426;2023-07-13T04:04:14;98015.81;;;19.96;58.54
22104;BME280;11218;48.886;9.426;2023-07-13T04:06:43;98017.91;;;19.99;58.72
22104;BME280;11218;48.886;9.426;2023-07-13T04:09:11;98012.88;;;19.93;58.71
22104;BME280;11218;48.886;9.426;2023-07-13T04:11:39;98012.59;;;19.94;58.67
22104;BME280;11218;48.886;9.426;2023-07-13T04:14:07;98019.03;;;19.98;58.66
22104;BME280;11218;48.886;9.426;2023-07-13T04:16:35;98012.94;;;20.01;58.02
22104;BME280;11218;48.886;9.426;2023-07-13T04:19:13;98021.66;;;20.04;58.57
22104;BME280;11218;48.886;9.426;2023-07-13T04:21:41;98013.44;;;20.04;57.91
22104;BME280;11218;48.886;9.426;2023-07-13T04:24:09;98014.56;;;20.02;57.96
22104;BME280;11218;48.886;9.426;2023-07-13T04:26:37;98020.84;;;20.03;57.86
22104;BME280;11218;48.886;9.426;2023-07-13T04:29:06;98018.41;;;20.01;57.72
22104;BME280;11218;48.886;9.426;2023-07-13T04:31:35;98021.66;;;20.04;58.13
22104;BME280;11218;48.886;9.426;2023-07-13T04:34:03;98029.19;;;20.07;57.93
22104;BME280;11218;48.886;9.426;2023-07-13T04:36:32;98025.66;;;20.06;58.12
22104;BME280;11218;48.886;9.426;2023-07-13T04:39:04;98028.38;;;20.06;58.52
22104;BME280;11218;48.886;9.426;2023-07-13T04:41:33;98028.56;;;20.10;58.67
22104;BME280;11218;48.886;9.426;2023-07-13T04:44:01;98026.31;;;20.12;58.93
22104;BME280;11218;48.886;9.426;2023-07-13T04:46:29;98025.72;;;20.15;58.76
22104;BME280;11218;48.886;9.426;2023-07-13T04:48:58;98030.06;;;20.16;58.56
22104;BME280;11218;48.886;9.426;2023-07-13T04:51:26;98034.41;;;20.17;58.64
22104;BME280;11218;48.886;9.426;2023-07-13T04:53:55;98034.09;;;20.18;58.42
22104;BME280;11218;48.886;9.426;2023-07-13T04:56:27;98032.97;;;20.19;58.30
22104;BME280;11218;48.886;9.426;2023-07-13T04:58:55;98030.56;;;20.18;58.72
22104;BME280;11218;48.886;9.426;2023-07-13T05:01:24;98039.88;;;20.17;58.59
22104;BME280;11218;48.886;9.426;2023-07-13T05:03:53;98033.91;;;20.15;59.18
22104;BME280;11218;48.886;9.426;2023-07-13T05:06:24;98036.94;;;20.13;59.39
22104;BME280;11218;48.886;9.426;2023-07-13T05:08:52;98040.63;;;20.09;59.97
22104;BME280;11218;48.886;9.426;2023-07-13T05:11:21;98038.84;;;20.04;60.30
22104;BME280;11218;48.886;9.426;2023-07-13T05:13:49;98038.03;;;20.04;61.08
22104;BME280;11218;48.886;9.426;2023-07-13T05:16:18;98034.66;;;20.07;60.72
22104;BME280;11218;48.886;9.426;2023-07-13T05:18:46;98039.81;;;20.08;61.05
22104;BME280;11218;48.886;9.426;2023-07-13T05:21:14;98045.97;;;20.14;60.96
22104;BME280;11218;48.886;9.426;2023-07-13T05:23:42;98047.75;;;20.18;60.68
22104;BME280;11218;48.886;9.426;2023-07-13T05:26:11;98043.59;;;20.21;60.65
22104;BME280;11218;48.886;9.426;2023-07-13T05:28:40;98045.72;;;20.24;60.66
22104;BME280;11218;48.886;9.426;2023-07-13T05:31:09;98045.53;;;20.20;59.29
22104;BME280;11218;48.886;9.426;2023-07-13T05:33:38;98046.16;;;20.17;58.63
22104;BME280;11218;48.886;9.426;2023-07-13T05:36:06;98050.81;;;20.17;58.23
22104;BME280;11218;48.886;9.426;2023-07-13T05:38:34;98049.88;;;20.21;58.32
22104;BME280;11218;48.886;9.426;2023-07-13T05:41:03;98052.16;;;20.28;58.19
22104;BME280;11218;48.886;9.426;2023-07-13T05:43:34;98053.66;;;20.34;57.88
22104;BME280;11218;48.886;9.426;2023-07-13T05:46:06;98042.59;;;20.39;57.74
22104;BME280;11218;48.886;9.426;2023-07-13T05:48:34;98048.25;;;20.43;57.58
22104;BME280;11218;48.886;9.426;2023-07-13T05:51:03;98043.59;;;20.43;57.26
22104;BME280;11218;48.886;9.426;2023-07-13T05:53:31;98051.41;;;20.36;57.20
22104;BME280;11218;48.886;9.426;2023-07-13T05:55:59;98053.53;;;20.39;57.41
22104;BME280;11218;48.886;9.426;2023-07-13T05:58:28;98049.88;;;20.44;56.74
22104;BME280;11218;48.886;9.426;2023-07-13T06:01:01;98055.75;;;20.37;57.47
22104;BME280;11218;48.886;9.426;2023-07-13T06:03:32;98055.97;;;20.41;57.41
22104;BME280;11218;48.886;9.426;2023-07-13T06:06:00;98060.00;;;20.43;57.12
22104;BME280;11218;48.886;9.426;2023-07-13T06:08:29;98064.66;;;20.43;57.67
22104;BME280;11218;48.886;9.426;2023-07-13T06:11:02;98070.13;;;20.43;57.40
22104;BME280;11218;48.886;9.426;2023-07-13T06:13:31;98069.03;;;20.44;57.74
22104;BME280;11218;48.886;9.426;2023-07-13T06:16:00;98062.97;;;20.33;58.09
22104;BME280;11218;48.886;9.426;2023-07-13T06:18:33;98076.16;;;20.31;58.72
22104;BME280;11218;48.886;9.426;2023-07-13T06:21:04;98073.66;;;20.21;59.33
22104;BME280;11218;48.886;9.426;2023-07-13T06:23:33;98071.13;;;20.24;59.24
22104;BME280;11218;48.886;9.426;2023-07-13T06:26:01;98073.66;;;20.21;58.85
22104;BME280;11218;48.886;9.426;2023-07-13T06:28:29;98078.81;;;20.22;59.04
22104;BME280;11218;48.886;9.426;2023-07-13T06:30:58;98080.50;;;20.32;58.45
22104;BME280;11218;48.886;9.426;2023-07-13T06:33:27;98083.63;;;20.39;57.78
22104;BME280;11218;48.886;9.426;2023-07-13T06:35:56;98090.72;;;20.40;57.15
22104;BME280;11218;48.886;9.426;2023-07-13T06:38:24;98092.69;;;20.48;55.34
22104;BME280;11218;48.886;9.426;2023-07-13T06:40:52;98096.91;;;20.54;54.16
22104;BME280;11218;48.886;9.426;2023-07-13T06:43:21;98098.28;;;20.43;54.23
22104;BME280;11218;48.886;9.426;2023-07-13T06:45:49;98104.56;;;20.44;54.58
22104;BME280;11218;48.886;9.426;2023-07-13T06:48:18;98102.81;;;20.48;54.42
22104;BME280;11218;48.886;9.426;2023-07-13T06:50:48;98117.81;;;20.50;53.71
22104;BME280;11218;48.886;9.426;2023-07-13T06:53:19;98117.09;;;20.67;53.05
22104;BME280;11218;48.886;9.426;2023-07-13T06:55:48;98120.81;;;20.71;52.87
22104;BME280;11218;48.886;9.426;2023-07-13T06:58:18;98108.63;;;20.77;51.70
22104;BME280;11218;48.886;9.426;2023-07-13T07:00:50;98112.75;;;20.66;52.57
22104;BME280;11218;48.886;9.426;2023-07-13T07:03:18;98116.34;;;20.75;52.64
22104;BME280;11218;48.886;9.426;2023-07-13T07:05:47;98112.19;;;20.86;53.13
22104;BME280;11218;48.886;9.426;2023-07-13T07:08:14;98116.44;;;21.01;52.32
22104;BME280;11218;48.886;9.426;2023-07-13T07:10:44;98122.72;;;21.02;51.20
22104;BME280;11218;48.886;9.426;2023-07-13T07:13:13;98116.28;;;21.06;50.33
22104;BME280;11218;48.886;9.426;2023-07-13T07:15:41;98118.41;;;21.09;50.26
22104;BME280;11218;48.886;9.426;2023-07-13T07:18:09;98120.84;;;21.19;50.43
22104;BME280;11218;48.886;9.426;2023-07-13T07:20:37;98129.78;;;21.25;50.20
22104;BME280;11218;48.886;9.426;2023-07-13T07:23:05;98119.00;;;21.28;50.30
22104;BME280;11218;48.886;9.426;2023-07-13T07:25:33;98124.97;;;21.39;50.22
22104;BME280;11218;48.886;9.426;2023-07-13T07:28:05;98122.75;;;21.58;50.04
22104;BME280;11218;48.886;9.426;2023-07-13T07:30:36;98123.44;;;21.81;49.56
22104;BME280;11218;48.886;9.426;2023-07-13T07:33:07;98126.22;;;22.07;49.05
22104;BME280;11218;48.886;9.426;2023-07-13T07:35:35;98123.97;;;22.18;48.11
22104;BME280;11218;48.886;9.426;2023-07-13T07:38:24;98118.75;;;22.42;46.38
22104;BME280;11218;48.886;9.426;2023-07-13T07:40:52;98121.00;;;22.49;46.27
22104;BME280;11218;48.886;9.426;2023-07-13T07:43:24;98115.16;;;22.68;45.01
22104;BME280;11218;48.886;9.426;2023-07-13T07:45:52;98112.53;;;22.88;44.26
22104;BME280;11218;48.886;9.426;2023-07-13T07:48:21;98124.28;;;22.98;44.44
22104;BME280;11218;48.886;9.426;2023-07-13T07:50:48;98123.41;;;23.14;43.73
22104;BME280;11218;48.886;9.426;2023-07-13T07:53:17;98125.81;;;23.16;41.56
22104;BME280;11218;48.886;9.426;2023-07-13T07:55:45;98122.38;;;23.27;42.60
22104;BME280;11218;48.886;9.426;2023-07-13T07:58:17;98122.00;;;23.38;42.57
22104;BME280;11218;48.886;9.426;2023-07-13T08:00:49;98127.75;;;23.53;41.37
22104;BME280;11218;48.886;9.426;2023-07-13T08:03:20;98130.97;;;23.55;40.64
22104;BME280;11218;48.886;9.426;2023-07-13T08:05:52;98128.19;;;23.64;40.96
22104;BME280;11218;48.886;9.426;2023-07-13T08:08:24;98123.50;;;23.65;40.93
22104;BME280;11218;48.886;9.426;2023-07-13T08:10:52;98128.84;;;23.82;41.39
22104;BME280;11218;48.886;9.426;2023-07-13T08:13:25;98129.06;;;23.98;40.45
22104;BME280;11218;48.886;9.426;2023-07-13T08:15:54;98130.00;;;24.22;40.27
22104;BME280;11218;48.886;9.426;2023-07-13T08:18:22;98131.34;;;24.37;40.99
22104;BME280;11218;48.886;9.426;2023-07-13T08:20:50;98129.81;;;24.61;39.18
22104;BME280;11218;48.886;9.426;2023-07-13T08:23:18;98139.53;;;24.46;37.77
22104;BME280;11218;48.886;9.426;2023-07-13T08:25:50;98139.88;;;24.56;37.06
22104;BME280;11218;48.886;9.426;2023-07-13T08:28:19;98141.88;;;24.68;37.75
22104;BME280;11218;48.886;9.426;2023-07-13T08:30:47;98142.44;;;24.62;36.25
22104;BME280;11218;48.886;9.426;2023-07-13T08:33:18;98149.53;;;24.63;36.78
22104;BME280;11218;48.886;9.426;2023-07-13T08:35:47;98148.44;;;24.76;37.05
22104;BME280;11218;48.886;9.426;2023-07-13T08:38:15;98144.75;;;24.72;36.11
22104;BME280;11218;48.886;9.426;2023-07-13T08:40:54;98145.53;;;24.60;36.02
22104;BME280;11218;48.886;9.426;2023-07-13T08:43:26;98142.47;;;24.74;36.03
22104;BME280;11218;48.886;9.426;2023-07-13T08:46:11;98145.38;;;24.89;36.16
22104;BME280;11218;48.886;9.426;2023-07-13T08:48:46;98140.47;;;24.95;36.70
22104;BME280;11218;48.886;9.426;2023-07-13T08:51:24;98143.25;;;25.07;34.97
22104;BME280;11218;48.886;9.426;2023-07-13T08:53:58;98150.97;;;25.14;35.56
22104;BME280;11218;48.886;9.426;2023-07-13T08:56:29;98156.72;;;25.21;36.11
22104;BME280;11218;48.886;9.426;2023-07-13T08:58:58;98153.63;;;25.23;35.76
22104;BME280;11218;48.886;9.426;2023-07-13T09:01:34;98146.81;;;25.32;34.98
22104;BME280;11218;48.886;9.426;2023-07-13T09:04:14;98148.53;;;25.37;35.29
22104;BME280;11218;48.886;9.426;2023-07-13T09:06:55;98153.59;;;25.35;36.32
22104;BME280;11218;48.886;9.426;2023-07-13T09:09:34;98143.50;;;25.39;36.55
22104;BME280;11218;48.886;9.426;2023-07-13T09:12:09;98146.13;;;25.60;35.90
22104;BME280;11218;48.886;9.426;2023-07-13T09:14:43;98146.38;;;25.79;35.87
22104;BME280;11218;48.886;9.426;2023-07-13T09:17:17;98141.44;;;25.84;35.82
22104;BME280;11218;48.886;9.426;2023-07-13T09:19:51;98152.13;;;25.86;35.13
22104;BME280;11218;48.886;9.426;2023-07-13T09:22:23;98155.00;;;25.77;34.62
22104;BME280;11218;48.886;9.426;2023-07-13T09:24:58;98145.25;;;25.68;34.96
22104;BME280;11218;48.886;9.426;2023-07-13T09:27:30;98157.44;;;25.67;35.25
22104;BME280;11218;48.886;9.426;2023-07-13T09:30:12;98152.81;;;25.71;34.81
22104;BME280;11218;48.886;9.426;2023-07-13T09:32:57;98165.56;;;25.63;34.79
22104;BME280;11218;48.886;9.426;2023-07-13T09:35:28;98160.63;;;25.81;35.06
22104;BME280;11218;48.886;9.426;2023-07-13T09:37:58;98155.69;;;25.86;34.47
22104;BME280;11218;48.886;9.426;2023-07-13T09:40:40;98151.88;;;25.91;34.29
22104;BME280;11218;48.886;9.426;2023-07-13T09:43:13;98152.22;;;25.90;34.04
22104;BME280;11218;48.886;9.426;2023-07-13T09:45:45;98157.84;;;25.93;33.91
22104;BME280;11218;48.886;9.426;2023-07-13T09:48:15;98144.50;;;25.95;34.15
22104;BME280;11218;48.886;9.426;2023-07-13T09:50:45;98149.19;;;26.07;33.62
22104;BME280;11218;48.886;9.426;2023-07-13T09:53:16;98147.78;;;26.13;34.22
22104;BME280;11218;48.886;9.426;2023-07-13T09:55:46;98144.91;;;26.09;33.25
22104;BME280;11218;48.886;9.426;2023-07-13T09:58:20;98152.00;;;26.35;34.43
22104;BME280;11218;48.886;9.426;2023-07-13T10:00:57;98144.63;;;26.67;34.32
22104;BME280;11218;48.886;9.426;2023-07-13T10:03:27;98145.25;;;26.92;33.85
22104;BME280;11218;48.886;9.426;2023-07-13T10:06:06;98141.66;;;27.03;32.70
22104;BME280;11218;48.886;9.426;2023-07-13T10:08:38;98137.56;;;26.97;32.98
22104;BME280;11218;48.886;9.426;2023-07-13T10:11:11;98144.38;;;26.88;33.00
22104;BME280;11218;48.886;9.426;2023-07-13T10:13:42;98142.84;;;26.90;33.06
22104;BME280;11218;48.886;9.426;2023-07-13T10:16:12;98147.63;;;27.05;32.43
22104;BME280;11218;48.886;9.426;2023-07-13T10:18:45;98136.97;;;26.92;33.04
22104;BME280;11218;48.886;9.426;2023-07-13T10:21:17;98135.31;;;27.03;32.99
22104;BME280;11218;48.886;9.426;2023-07-13T10:24:05;98132.22;;;27.04;32.31
22104;BME280;11218;48.886;9.426;2023-07-13T10:26:42;98135.94;;;26.96;32.69
22104;BME280;11218;48.886;9.426;2023-07-13T10:29:14;98130.75;;;26.95;32.95
22104;BME280;11218;48.886;9.426;2023-07-13T10:31:45;98132.91;;;27.01;31.52
22104;BME280;11218;48.886;9.426;2023-07-13T10:34:14;98129.94;;;26.94;31.69
22104;BME280;11218;48.886;9.426;2023-07-13T10:36:45;98131.84;;;27.06;31.86
22104;BME280;11218;48.886;9.426;2023-07-13T10:39:26;98134.78;;;27.13;31.05
22104;BME280;11218;48.886;9.426;2023-07-13T10:41:58;98129.25;;;26.97;31.06
22104;BME280;11218;48.886;9.426;2023-07-13T10:44:29;98122.72;;;26.90;31.28
22104;BME280;11218;48.886;9.426;2023-07-13T10:46:59;98127.06;;;26.91;31.70
22104;BME280;11218;48.886;9.426;2023-07-13T10:49:30;98132.66;;;26.63;31.00
22104;BME280;11218;48.886;9.426;2023-07-13T10:52:01;98136.03;;;26.56;31.48
22104;BME280;11218;48.886;9.426;2023-07-13T10:54:31;98141.50;;;26.40;31.49
22104;BME280;11218;48.886;9.426;2023-07-13T10:57:17;98135.63;;;26.42;32.21
22104;BME280;11218;48.886;9.426;2023-07-13T10:59:48;98128.09;;;26.55;31.93
22104;BME280;11218;48.886;9.426;2023-07-13T11:02:28;98124.44;;;26.50;31.49
22104;BME280;11218;48.886;9.426;2023-07-13T11:04:57;98117.41;;;26.53;32.55
22104;BME280;11218;48.886;9.426;2023-07-13T11:07:28;98128.47;;;26.53;32.33
22104;BME280;11218;48.886;9.426;2023-07-13T11:10:02;98128.75;;;26.36;32.75
22104;BME280;11218;48.886;9.426;2023-07-13T11:12:53;98127.63;;;26.25;32.70
22104;BME280;11218;48.886;9.426;2023-07-13T11:15:31;98122.19;;;26.28;32.14
22104;BME280;11218;48.886;9.426;2023-07-13T11:18:09;98124.97;;;26.28;32.70
22104;BME280;11218;48.886;9.426;2023-07-13T11:20:41;98126.81;;;26.36;32.67
22104;BME280;11218;48.886;9.426;2023-07-13T11:23:28;98122.75;;;26.46;32.87
22104;BME280;11218;48.886;9.426;2023-07-13T11:25:57;98116.72;;;26.56;32.83
22104;BME280;11218;48.886;9.426;2023-07-13T11:28:30;98111.22;;;26.72;32.27
22104;BME280;11218;48.886;9.426;2023-07-13T11:31:13;98098.00;;;26.81;31.89
22104;BME280;11218;48.886;9.426;2023-07-13T11:33:52;98103.50;;;27.09;31.96
22104;BME280;11218;48.886;9.426;2023-07-13T11:36:22;98101.53;;;27.25;31.67
22104;BME280;11218;48.886;9.426;2023-07-13T11:38:59;98102.75;;;27.43;31.62
22104;BME280;11218;48.886;9.426;2023-07-13T11:41:31;98098.34;;;27.58;30.89
22104;BME280;11218;48.886;9.426;2023-07-13T11:44:07;98100.81;;;27.44;30.91
22104;BME280;11218;48.886;9.426;2023-07-13T11:46:35;98103.06;;;27.23;30.89
22104;BME280;11218;48.886;9.426;2023-07-13T11:49:04;98106.13;;;26.90;31.45
22104;BME280;11218;48.886;9.426;2023-07-13T11:51:34;98091.78;;;26.68;32.23
22104;BME280;11218;48.886;9.426;2023-07-13T11:54:06;98095.16;;;26.93;32.53
22104;BME280;11218;48.886;9.426;2023-07-13T11:56:40;98103.22;;;27.30;32.23
22104;BME280;11218;48.886;9.426;2023-07-13T11:59:12;98106.63;;;27.58;32.00
22104;BME280;11218;48.886;9.426;2023-07-13T12:01:44;98109.41;;;27.74;29.91
22104;BME280;11218;48.886;9.426;2023-07-13T12:04:21;98110.63;;;27.76;30.78
22104;BME280;11218;48.886;9.426;2023-07-13T12:06:55;98115.41;;;27.95;30.08
22104;BME280;11218;48.886;9.426;2023-07-13T12:09:27;98109.50;;;27.97;29.88
22104;BME280;11218;48.886;9.426;2023-07-13T12:11:57;98116.97;;;28.12;29.72
22104;BME280;11218;48.886;9.426;2023-07-13T12:14:28;98103.03;;;28.28;29.97
22104;BME280;11218;48.886;9.426;2023-07-13T12:16:56;98108.72;;;28.35;29.58
22104;BME280;11218;48.886;9.426;2023-07-13T12:19:26;98101.28;;;28.58;29.73
22104;BME280;11218;48.886;9.426;2023-07-13T12:21:57;98105.59;;;28.56;28.93
22104;BME280;11218;48.886;9.426;2023-07-13T12:24:27;98105.53;;;28.33;28.84
22104;BME280;11218;48.886;9.426;2023-07-13T12:27:00;98096.56;;;28.01;29.29
22104;BME280;11218;48.886;9.426;2023-07-13T12:29:29;98094.13;;;27.80;29.68
22104;BME280;11218;48.886;9.426;2023-07-13T12:31:57;98098.94;;;27.83;29.72
22104;BME280;11218;48.886;9.426;2023-07-13T12:34:26;98099.88;;;27.91;29.60
22104;BME280;11218;48.886;9.426;2023-07-13T12:36:55;98103.69;;;28.02;29.34
22104;BME280;11218;48.886;9.426;2023-07-13T12:39:34;98089.28;;;28.12;29.68
22104;BME280;11218;48.886;9.426;2023-07-13T12:42:19;98089.63;;;27.91;29.11
22104;BME280;11218;48.886;9.426;2023-07-13T12:44:52;98089.78;;;27.98;29.53
22104;BME280;11218;48.886;9.426;2023-07-13T12:47:22;98090.00;;;28.09;29.10
22104;BME280;11218;48.886;9.426;2023-07-13T12:49:53;98092.56;;;28.18;29.55
22104;BME280;11218;48.886;9.426;2023-07-13T12:52:23;98095.41;;;28.21;29.04
22104;BME280;11218;48.886;9.426;2023-07-13T12:54:56;98092.78;;;28.28;29.14
22104;BME280;11218;48.886;9.426;2023-07-13T12:57:38;98101.28;;;28.39;28.78
22104;BME280;11218;48.886;9.426;2023-07-13T13:00:21;98096.56;;;28.20;28.83
22104;BME280;11218;48.886;9.426;2023-07-13T13:02:52;98093.34;;;27.99;29.56
22104;BME280;11218;48.886;9.426;2023-07-13T13:05:34;98092.66;;;27.86;29.22
22104;BME280;11218;48.886;9.426;2023-07-13T13:08:04;98101.81;;;28.06;29.16
22104;BME280;11218;48.886;9.426;2023-07-13T13:10:32;98095.03;;;28.03;29.05
22104;BME280;11218;48.886;9.426;2023-07-13T13:13:04;98094.22;;;28.03;29.24
22104;BME280;11218;48.886;9.426;2023-07-13T13:15:32;98088.84;;;28.29;28.82
22104;BME280;11218;48.886;9.426;2023-07-13T13:18:00;98077.25;;;28.43;29.13
22104;BME280;11218;48.886;9.426;2023-07-13T13:20:29;98090.44;;;28.50;29.06
22104;BME280;11218;48.886;9.426;2023-07-13T13:22:58;98086.56;;;28.54;28.04